createdAt,value
2023-02-03T00:04:56.774Z,83.70
2023-02-03T00:10:04.888Z,83.91
2023-02-03T00:15:12.338Z,83.81
2023-02-03T00:20:18.915Z,83.88
2023-02-03T00:25:27.209Z,83.80
2023-02-03T00:30:35.630Z,83.77
2023-02-03T00:35:42.147Z,83.87
2023-02-03T00:40:56.418Z,83.82
2023-02-03T00:46:02.836Z,83.65
2023-02-03T00:51:09.144Z,84.02
2023-02-03T00:56:16.959Z,83.93
2023-02-03T01:01:23.849Z,83.35
2023-02-03T01:06:30.393Z,83.51
2023-02-03T01:11:38.266Z,83.12
2023-02-03T01:16:44.534Z,82.79
2023-02-03T01:21:50.695Z,82.46
2023-02-03T01:26:58.286Z,82.22
2023-02-03T01:32:04.875Z,82.94
2023-02-03T01:37:10.983Z,82.65
2023-02-03T01:42:18.855Z,82.90
2023-02-03T01:47:32.437Z,83.55
2023-02-03T01:52:40.703Z,83.35
2023-02-03T01:57:53.720Z,82.91
2023-02-03T02:03:02.813Z,83.41
2023-02-03T02:08:12.747Z,83.25
2023-02-03T02:13:22.551Z,83.13
2023-02-03T02:18:49.951Z,83.13
2023-02-03T02:24:43.046Z,83.31
2023-02-03T02:30:38.793Z,83.32
2023-02-03T02:35:59.218Z,83.42
2023-02-03T02:41:12.603Z,83.54
2023-02-03T02:46:34.456Z,83.71
2023-02-03T02:51:44.180Z,83.88
2023-02-03T02:56:57.964Z,83.75
2023-02-03T03:02:04.265Z,83.68
2023-02-03T03:07:15.827Z,83.91
2023-02-03T03:12:26.512Z,84.08
2023-02-03T03:17:36.461Z,83.80
2023-02-03T03:22:49.335Z,83.94
2023-02-03T03:28:04.629Z,84.02
2023-02-03T03:33:12.343Z,83.95
2023-02-03T03:38:32.219Z,83.96
2023-02-03T03:43:44.269Z,84.20
2023-02-03T03:48:57.127Z,84.26
2023-02-03T03:54:09.148Z,84.27
2023-02-03T03:59:19.159Z,84.49
2023-02-03T04:04:27.815Z,84.66
2023-02-03T04:09:37.440Z,84.29
2023-02-03T04:14:43.853Z,84.37
2023-02-03T04:19:50.788Z,84.44
2023-02-03T04:25:00.833Z,85.11
2023-02-03T04:30:10.693Z,85.01
2023-02-03T04:35:17.606Z,85.19
2023-02-03T04:40:25.525Z,85.16
2023-02-03T04:45:31.975Z,85.30
2023-02-03T04:50:38.403Z,85.42
2023-02-03T04:55:49.333Z,85.39
2023-02-03T05:00:57.739Z,85.91
2023-02-03T05:06:05.779Z,85.61
2023-02-03T05:11:13.545Z,85.73
2023-02-03T05:16:19.917Z,86.11
2023-02-03T05:21:26.251Z,86.38
2023-02-03T05:26:33.866Z,86.40
2023-02-03T05:31:40.107Z,86.04
2023-02-03T05:36:47.302Z,86.25
2023-02-03T05:41:58.271Z,86.25
2023-02-03T05:47:04.921Z,86.37
2023-02-03T05:52:11.354Z,87.07
2023-02-03T05:57:19.670Z,87.12
2023-02-03T06:02:25.929Z,87.19
2023-02-03T06:07:32.252Z,87.51
2023-02-03T06:12:41.644Z,87.80
2023-02-03T06:17:48.958Z,87.50
2023-02-03T06:22:55.152Z,87.54
2023-02-03T06:28:04.916Z,87.45
2023-02-03T06:33:11.427Z,87.97
2023-02-03T06:38:17.890Z,87.52
2023-02-03T06:43:26.760Z,87.58
2023-02-03T06:48:32.843Z,87.58
2023-02-03T06:53:39.283Z,87.98
2023-02-03T06:58:47.965Z,87.90
2023-02-03T07:03:55.107Z,88.47
2023-02-03T07:09:03.984Z,88.92
2023-02-03T07:14:11.388Z,89.07
2023-02-03T07:19:17.562Z,88.98
2023-02-03T07:24:28.680Z,89.03
2023-02-03T07:29:36.628Z,88.79
2023-02-03T07:34:42.983Z,88.76
2023-02-03T07:39:49.272Z,88.95
2023-02-03T07:44:58.276Z,89.07
2023-02-03T07:50:07.463Z,89.09
2023-02-03T07:55:14.385Z,89.11
2023-02-03T08:00:23.874Z,89.14
2023-02-03T08:05:30.569Z,89.14
2023-02-03T08:10:36.996Z,88.82
2023-02-03T08:15:45.093Z,89.30
2023-02-03T08:20:56.039Z,88.41
2023-02-03T08:26:02.611Z,88.68
2023-02-03T08:31:14.379Z,88.44
2023-02-03T08:36:20.897Z,88.15
2023-02-03T08:41:27.193Z,88.04
2023-02-03T08:46:36.121Z,87.58
2023-02-03T08:51:42.195Z,87.56
2023-02-03T08:56:48.694Z,87.07
2023-02-03T09:01:56.848Z,86.89
2023-02-03T09:07:04.819Z,86.60
2023-02-03T09:12:13.363Z,86.30
2023-02-03T09:17:21.209Z,86.07
2023-02-03T09:22:27.858Z,86.06
2023-02-03T09:27:34.961Z,86.35
2023-02-03T09:32:43.030Z,85.25
2023-02-03T09:37:49.520Z,85.09
2023-02-03T09:43:13.103Z,84.83
2023-02-03T09:48:26.640Z,84.86
2023-02-03T09:53:40.315Z,85.00
2023-02-03T09:58:47.879Z,84.91
2023-02-03T10:04:03.729Z,84.91
2023-02-03T10:09:28.134Z,84.23
2023-02-03T10:14:52.052Z,84.19
2023-02-03T10:20:08.652Z,84.03
2023-02-03T10:25:25.264Z,83.64
2023-02-03T10:30:45.884Z,83.83
2023-02-03T10:35:58.061Z,83.76
2023-02-03T10:41:05.020Z,83.41
2023-02-03T10:46:11.388Z,83.45
2023-02-03T10:51:27.924Z,82.90
2023-02-03T10:56:38.764Z,82.70
2023-02-03T11:01:49.323Z,82.98
2023-02-03T11:07:02.757Z,83.15
2023-02-03T11:12:15.054Z,83.28
2023-02-03T11:17:26.604Z,83.15
2023-02-03T11:22:38.756Z,83.08
2023-02-03T11:27:45.625Z,82.90
2023-02-03T11:32:53.105Z,82.97
2023-02-03T11:38:04.070Z,82.81
2023-02-03T11:43:19.671Z,82.41
2023-02-03T11:48:33.409Z,82.56
2023-02-03T11:54:01.442Z,82.68
2023-02-03T11:59:45.891Z,82.10
2023-02-03T12:05:19.528Z,82.70
2023-02-03T12:10:42.762Z,82.71
2023-02-03T12:16:12.100Z,82.30
2023-02-03T12:21:39.234Z,82.52
2023-02-03T12:27:00.880Z,83.03
2023-02-03T12:32:17.501Z,83.12
2023-02-03T12:37:29.751Z,83.93
2023-02-03T12:42:43.988Z,84.46
2023-02-03T12:47:57.168Z,84.85
2023-02-03T12:53:11.881Z,85.58
2023-02-03T12:58:26.861Z,86.58
2023-02-03T13:03:44.481Z,87.39
2023-02-03T13:08:59.965Z,87.67
2023-02-03T13:14:19.762Z,87.90
2023-02-03T13:19:32.242Z,88.62
2023-02-03T13:24:39.764Z,88.74
2023-02-03T13:30:13.792Z,89.16
2023-02-03T13:35:42.635Z,88.93
2023-02-03T13:41:02.843Z,89.52
2023-02-03T13:46:22.914Z,89.58
2023-02-03T13:51:35.312Z,89.51
2023-02-03T13:56:42.957Z,89.91
2023-02-03T14:01:50.811Z,89.85
2023-02-03T14:07:09.513Z,89.97
2023-02-03T14:12:44.076Z,89.65
2023-02-03T14:18:24.588Z,89.71
2023-02-03T14:23:45.905Z,89.73
2023-02-03T14:28:54.015Z,90.16
2023-02-03T14:34:17.626Z,90.15
2023-02-03T14:40:27.865Z,90.31
2023-02-03T14:46:02.648Z,90.58
2023-02-03T14:51:25.582Z,91.18
2023-02-03T14:57:04.393Z,90.97
2023-02-03T15:02:21.393Z,91.09
2023-02-03T15:07:45.057Z,91.17
2023-02-03T15:12:54.383Z,91.71
2023-02-03T15:18:20.957Z,91.62
2023-02-03T15:23:30.970Z,91.52
2023-02-03T15:28:37.945Z,91.87
2023-02-03T15:33:45.121Z,91.92
2023-02-03T15:39:01.301Z,91.96
2023-02-03T15:44:15.741Z,91.91
2023-02-03T15:49:29.053Z,91.95
2023-02-03T15:54:43.922Z,91.84
2023-02-03T15:59:56.046Z,91.82
2023-02-03T16:05:07.866Z,91.83
2023-02-03T16:10:30.578Z,91.78
2023-02-03T16:15:37.949Z,91.93
2023-02-03T16:20:52.079Z,92.15
2023-02-03T16:26:21.096Z,91.95
2023-02-03T16:31:44.851Z,92.24
2023-02-03T16:37:09.740Z,92.24
2023-02-03T16:42:37.672Z,92.11
2023-02-03T16:48:03.255Z,92.42
2023-02-03T16:53:20.189Z,92.43
2023-02-03T16:58:28.598Z,92.13
2023-02-03T17:03:38.148Z,92.07
2023-02-03T17:08:45.584Z,92.10
2023-02-03T17:13:54.409Z,92.16
2023-02-03T17:19:01.229Z,92.07
2023-02-03T17:24:09.285Z,91.98
2023-02-03T17:29:18.707Z,91.96
2023-02-03T17:34:25.711Z,92.07
2023-02-03T17:55:50.327Z,91.50
2023-02-03T18:00:59.865Z,91.85
2023-02-03T18:06:08.663Z,91.75
2023-02-03T18:11:18.769Z,91.87
2023-02-03T18:16:34.254Z,91.86
2023-02-03T18:21:43.481Z,92.08
2023-02-03T18:26:57.170Z,92.75
2023-02-03T18:32:08.169Z,92.30
2023-02-03T18:37:17.527Z,92.45
2023-02-03T18:42:28.532Z,92.13
2023-02-03T18:47:39.979Z,92.15
2023-02-03T18:52:56.520Z,91.98
2023-02-03T18:58:05.625Z,92.23
2023-02-03T19:03:16.209Z,92.53
2023-02-03T19:08:24.780Z,92.54
2023-02-03T19:13:35.170Z,92.24
2023-02-03T19:18:49.465Z,92.75
2023-02-03T19:23:59.872Z,92.52
2023-02-03T19:29:10.494Z,92.54
2023-02-03T19:34:24.272Z,92.33
2023-02-03T19:39:37.071Z,92.39
2023-02-03T19:44:48.373Z,92.66
2023-02-03T19:49:59.880Z,92.38
2023-02-03T19:55:13.099Z,92.14
2023-02-03T20:00:26.407Z,92.01
2023-02-03T20:05:37.800Z,92.09
2023-02-03T20:10:46.964Z,92.13
2023-02-03T20:15:57.732Z,92.19
2023-02-03T20:21:08.976Z,91.98
2023-02-03T20:26:19.676Z,92.38
2023-02-03T20:31:29.554Z,92.61
2023-02-03T20:36:40.910Z,92.48
2023-02-03T20:41:55.331Z,92.52
2023-02-03T20:47:09.808Z,92.43
2023-02-03T20:52:23.737Z,92.48
2023-02-03T20:57:35.811Z,92.18
2023-02-03T21:02:57.549Z,92.33
2023-02-03T21:08:16.118Z,92.51
2023-02-03T21:13:28.910Z,92.49
2023-02-03T21:18:41.742Z,92.09
2023-02-03T21:23:55.037Z,92.10
2023-02-03T21:29:05.648Z,92.25
2023-02-03T21:34:30.070Z,91.88
2023-02-03T21:39:41.500Z,92.15
2023-02-03T21:44:50.098Z,91.93
2023-02-03T21:50:02.363Z,92.13
2023-02-03T21:55:19.717Z,91.52
2023-02-03T22:00:48.762Z,92.19
2023-02-03T22:06:06.410Z,91.79
2023-02-03T22:11:16.460Z,91.93
2023-02-03T22:16:24.270Z,91.82
2023-02-03T22:21:31.140Z,91.77
2023-02-03T22:26:40.099Z,91.47
2023-02-03T22:31:46.942Z,91.54
2023-02-03T22:36:53.542Z,91.97
2023-02-03T22:42:01.930Z,92.25
2023-02-03T22:47:08.450Z,91.95
2023-02-03T22:52:15.763Z,92.21
2023-02-03T22:57:24.001Z,92.24
2023-02-03T23:02:30.657Z,92.20
2023-02-03T23:07:38.789Z,92.38
2023-02-03T23:12:46.807Z,92.13
2023-02-03T23:17:53.349Z,91.87
2023-02-03T23:23:00.195Z,92.39
2023-02-03T23:28:08.359Z,92.39
2023-02-03T23:33:15.136Z,92.67
2023-02-03T23:38:21.612Z,92.96
2023-02-03T23:43:29.440Z,93.15
2023-02-03T23:48:35.776Z,93.44
2023-02-03T23:53:41.980Z,93.87
2023-02-03T23:58:49.498Z,94.31
